TAF Text Data
IDs:
Format:
Raw Decoded Include METAR

Data at: 0910 UTC 07 Dec 2022

KABY 070908Z 0709/0806 00000KT 1/4SM FG OVC002
  FM071400 VRB03KT 1SM BR OVC004
  FM071700 VRB03KT P6SM BKN008 OVC030
  FM072000 VRB03KT P6SM FEW080